Philomene P. Perera — WDC3201 — position and weather

sailwx.info

Track history (hours):
 
Tides and Currents Weather Stations Pressure Air Temp Water Temp Dewpoint Dewpoint Depression Visibility Wind Speed Wind Dir Waves Ship Positions

Philomene P. Perera

Owner: Settoon Towing, L.L.C., Houma, LA. More information available from US FCC via Universal Licensing System and Coast Guard Vessel Documentation Center.

Last reported at 2017-Nov-19 17:29 UTC. Time now 2017-Nov-20 13:50 UTC.
Position N 29°34' W 090°32'.

Length 16 m; draft 5 m.

Type: Towing. MMSI: 367003820.

Date/timePositionNaut miles runAvg speedWind from/ knotsBaromVisibWave heightAir tempDewpointWater temp
2017-Nov-19 17:29N 29°34' W 090°32'3 7.0
2017-Nov-19 16:59N 29°35' W 090°36'3 6.6
2017-Nov-19 16:30N 29°36' W 090°39'3 5.4
2017-Nov-19 16:00N 29°36' W 090°43'1 2.4
2017-Nov-19 15:30N 29°35' W 090°43'0 0.0
2017-Nov-19 15:00N 29°35' W 090°43'0 0.0
2017-Nov-19 14:30N 29°35' W 090°43'0 0.0
2017-Nov-19 14:00N 29°35' W 090°43'0 0.0
2017-Nov-19 13:30N 29°35' W 090°43'0 0.0
2017-Nov-19 13:00N 29°35' W 090°43'0 0.0
2017-Nov-19 12:30N 29°35' W 090°43'0 0.0
2017-Nov-19 12:00N 29°35' W 090°43'0 0.0
2017-Nov-19 11:30N 29°35' W 090°43'0 0.0
2017-Nov-19 11:00N 29°35' W 090°43'0 0.0
2017-Nov-19 10:30N 29°35' W 090°43'0 0.0
2017-Nov-19 10:00N 29°35' W 090°43'0 0.0
2017-Nov-19 09:30N 29°35' W 090°43'0 0.0
2017-Nov-19 09:00N 29°35' W 090°43'0 0.0
2017-Nov-19 08:30N 29°35' W 090°43'0 0.0
2017-Nov-19 08:00N 29°35' W 090°43'0 0.0
2017-Nov-19 07:30N 29°35' W 090°43'0 0.0
2017-Nov-19 07:00N 29°35' W 090°43'0 0.0
2017-Nov-19 06:30N 29°35' W 090°43'0 0.0
2017-Nov-19 06:00N 29°35' W 090°43'0 0.0
2017-Nov-19 05:30N 29°35' W 090°43'0 0.0
2017-Nov-19 05:00N 29°35' W 090°43'0 0.0
2017-Nov-19 04:30N 29°35' W 090°43'0 0.0
2017-Nov-19 04:00N 29°35' W 090°43'0 0.0
2017-Nov-19 03:30N 29°35' W 090°43'0 0.2
2017-Nov-19 03:00N 29°35' W 090°43'0 0.0
2017-Nov-19 02:30N 29°35' W 090°43'0 0.0
2017-Nov-19 02:00N 29°35' W 090°43'0 0.0
2017-Nov-19 01:30N 29°35' W 090°43'0 0.0
2017-Nov-19 01:00N 29°35' W 090°43'0 0.0
2017-Nov-19 00:30N 29°35' W 090°43'0 0.0
2017-Nov-19 00:00N 29°35' W 090°43'0 0.0
2017-Nov-18 23:30N 29°35' W 090°43'0 0.0
2017-Nov-18 23:00N 29°35' W 090°43'0 0.0
2017-Nov-18 22:30N 29°35' W 090°43'0 0.0
2017-Nov-18 22:00N 29°35' W 090°43'0 0.0
2017-Nov-18 21:30N 29°35' W 090°43'0 0.0
2017-Nov-18 21:00N 29°35' W 090°43'0 0.0
2017-Nov-18 20:30N 29°35' W 090°43'0 0.0
2017-Nov-18 20:00N 29°35' W 090°43'0 0.0
2017-Nov-18 19:30N 29°35' W 090°43'0 0.2
2017-Nov-18 19:00N 29°35' W 090°43'2 3.6
2017-Nov-18 18:30N 29°34' W 090°45'3 6.9
2017-Nov-18 18:00N 29°32' W 090°48'4 7.7
2017-Nov-18 17:28N 29°32' W 090°53'  
2017-Nov-12 06:39N 29°34' W 090°56'1 6.3
2017-Nov-12 06:26N 29°33' W 090°55'3 6.2
2017-Nov-12 05:55N 29°32' W 090°51'3 6.4
2017-Nov-12 05:30N 29°32' W 090°48'3 5.6
2017-Nov-12 05:00N 29°33' W 090°45'3 5.3
2017-Nov-12 04:30N 29°35' W 090°43'2 4.2
2017-Nov-12 04:00N 29°37' W 090°42'3 5.2
2017-Nov-12 03:30N 29°36' W 090°39'3 5.9
2017-Nov-12 03:00N 29°35' W 090°36'2 4.0
2017-Nov-12 02:30N 29°34' W 090°34'4 0.1
2017-Nov-10 15:26N 29°34' W 090°29'3 7.1
2017-Nov-10 15:00N 29°34' W 090°33'3 6.7
2017-Nov-10 14:30N 29°35' W 090°36'3 6.4
2017-Nov-10 14:00N 29°36' W 090°40'3 5.2
2017-Nov-10 13:30N 29°36' W 090°43'3 6.2
2017-Nov-10 13:00N 29°34' W 090°45'3 6.2
2017-Nov-10 12:30N 29°32' W 090°48'7 1.0
2017-Nov-10 05:29N 29°34' W 090°56'3 6.3
2017-Nov-10 05:00N 29°32' W 090°53'3 6.1
2017-Nov-10 04:30N 29°32' W 090°49'3 6.1
2017-Nov-10 04:00N 29°32' W 090°46'3 5.4
2017-Nov-10 03:30N 29°34' W 090°44'2 4.0
2017-Nov-10 03:00N 29°32' W 090°42'3 5.8
2017-Nov-10 02:30N 29°29' W 090°43'3 5.8
2017-Nov-10 02:00N 29°26' W 090°43'  
Track history (hours):
 
Tides and Currents Weather Stations Pressure Air Temp Water Temp Dewpoint Dewpoint Depression Visibility Wind Speed Wind Dir Waves Ship Positions

Philomene P. Perera

Owner: Settoon Towing, L.L.C., Houma, LA. More information available from US FCC via Universal Licensing System and Coast Guard Vessel Documentation Center.

Last reported at 2017-Nov-19 17:29 UTC. Time now 2017-Nov-20 13:50 UTC.
Position N 29°34' W 090°32'.

Length 16 m; draft 5 m.

Type: Towing. MMSI: 367003820.

Date/timePositionNaut miles runAvg speedWind from/ knotsBaromVisibWave heightAir tempDewpointWater temp
2017-Nov-19 17:29N 29°34' W 090°32'3 7.0
2017-Nov-19 16:59N 29°35' W 090°36'3 6.6
2017-Nov-19 16:30N 29°36' W 090°39'3 5.4
2017-Nov-19 16:00N 29°36' W 090°43'1 2.4
2017-Nov-19 15:30N 29°35' W 090°43'0 0.0
2017-Nov-19 15:00N 29°35' W 090°43'0 0.0
2017-Nov-19 14:30N 29°35' W 090°43'0 0.0
2017-Nov-19 14:00N 29°35' W 090°43'0 0.0
2017-Nov-19 13:30N 29°35' W 090°43'0 0.0
2017-Nov-19 13:00N 29°35' W 090°43'0 0.0
2017-Nov-19 12:30N 29°35' W 090°43'0 0.0
2017-Nov-19 12:00N 29°35' W 090°43'0 0.0
2017-Nov-19 11:30N 29°35' W 090°43'0 0.0
2017-Nov-19 11:00N 29°35' W 090°43'0 0.0
2017-Nov-19 10:30N 29°35' W 090°43'0 0.0
2017-Nov-19 10:00N 29°35' W 090°43'0 0.0
2017-Nov-19 09:30N 29°35' W 090°43'0 0.0
2017-Nov-19 09:00N 29°35' W 090°43'0 0.0
2017-Nov-19 08:30N 29°35' W 090°43'0 0.0
2017-Nov-19 08:00N 29°35' W 090°43'0 0.0
2017-Nov-19 07:30N 29°35' W 090°43'0 0.0
2017-Nov-19 07:00N 29°35' W 090°43'0 0.0
2017-Nov-19 06:30N 29°35' W 090°43'0 0.0
2017-Nov-19 06:00N 29°35' W 090°43'0 0.0
2017-Nov-19 05:30N 29°35' W 090°43'0 0.0
2017-Nov-19 05:00N 29°35' W 090°43'0 0.0
2017-Nov-19 04:30N 29°35' W 090°43'0 0.0
2017-Nov-19 04:00N 29°35' W 090°43'0 0.0
2017-Nov-19 03:30N 29°35' W 090°43'0 0.2
2017-Nov-19 03:00N 29°35' W 090°43'0 0.0
2017-Nov-19 02:30N 29°35' W 090°43'0 0.0
2017-Nov-19 02:00N 29°35' W 090°43'0 0.0
2017-Nov-19 01:30N 29°35' W 090°43'0 0.0
2017-Nov-19 01:00N 29°35' W 090°43'0 0.0
2017-Nov-19 00:30N 29°35' W 090°43'0 0.0
2017-Nov-19 00:00N 29°35' W 090°43'0 0.0
2017-Nov-18 23:30N 29°35' W 090°43'0 0.0
2017-Nov-18 23:00N 29°35' W 090°43'0 0.0
2017-Nov-18 22:30N 29°35' W 090°43'0 0.0
2017-Nov-18 22:00N 29°35' W 090°43'0 0.0
2017-Nov-18 21:30N 29°35' W 090°43'0 0.0
2017-Nov-18 21:00N 29°35' W 090°43'0 0.0
2017-Nov-18 20:30N 29°35' W 090°43'0 0.0
2017-Nov-18 20:00N 29°35' W 090°43'0 0.0
2017-Nov-18 19:30N 29°35' W 090°43'0 0.2
2017-Nov-18 19:00N 29°35' W 090°43'2 3.6
2017-Nov-18 18:30N 29°34' W 090°45'3 6.9
2017-Nov-18 18:00N 29°32' W 090°48'4 7.7
2017-Nov-18 17:28N 29°32' W 090°53'  
2017-Nov-12 06:39N 29°34' W 090°56'1 6.3
2017-Nov-12 06:26N 29°33' W 090°55'3 6.2
2017-Nov-12 05:55N 29°32' W 090°51'3 6.4
2017-Nov-12 05:30N 29°32' W 090°48'3 5.6
2017-Nov-12 05:00N 29°33' W 090°45'3 5.3
2017-Nov-12 04:30N 29°35' W 090°43'2 4.2
2017-Nov-12 04:00N 29°37' W 090°42'3 5.2
2017-Nov-12 03:30N 29°36' W 090°39'3 5.9
2017-Nov-12 03:00N 29°35' W 090°36'2 4.0
2017-Nov-12 02:30N 29°34' W 090°34'4 0.1
2017-Nov-10 15:26N 29°34' W 090°29'3 7.1
2017-Nov-10 15:00N 29°34' W 090°33'3 6.7
2017-Nov-10 14:30N 29°35' W 090°36'3 6.4
2017-Nov-10 14:00N 29°36' W 090°40'3 5.2
2017-Nov-10 13:30N 29°36' W 090°43'3 6.2
2017-Nov-10 13:00N 29°34' W 090°45'3 6.2
2017-Nov-10 12:30N 29°32' W 090°48'7 1.0
2017-Nov-10 05:29N 29°34' W 090°56'3 6.3
2017-Nov-10 05:00N 29°32' W 090°53'3 6.1
2017-Nov-10 04:30N 29°32' W 090°49'3 6.1
2017-Nov-10 04:00N 29°32' W 090°46'3 5.4
2017-Nov-10 03:30N 29°34' W 090°44'2 4.0
2017-Nov-10 03:00N 29°32' W 090°42'3 5.8
2017-Nov-10 02:30N 29°29' W 090°43'3 5.8
2017-Nov-10 02:00N 29°26' W 090°43'  

Dump ship's entire track history